sensor_id;sensor_type;location;lat;lon;timestamp;temperature;humidity
69324;DHT22;56470;47.350;8.718;2023-04-03T00:00:57;9.69;73.83
69324;DHT22;56470;47.350;8.718;2023-04-03T00:03:22;9.66;73.14
69324;DHT22;56470;47.350;8.718;2023-04-03T00:05:48;9.47;73.86
69324;DHT22;56470;47.350;8.718;2023-04-03T00:08:14;9.47;73.63
69324;DHT22;56470;47.350;8.718;2023-04-03T00:10:39;9.47;73.40
69324;DHT22;56470;47.350;8.718;2023-04-03T00:13:05;9.44;73.02
69324;DHT22;56470;47.350;8.718;2023-04-03T00:15:31;9.33;73.23
69324;DHT22;56470;47.350;8.718;2023-04-03T00:17:57;9.18;73.10
69324;DHT22;56470;47.350;8.718;2023-04-03T00:20:22;9.14;73.58
69324;DHT22;56470;47.350;8.718;2023-04-03T00:22:48;9.08;72.25
69324;DHT22;56470;47.350;8.718;2023-04-03T00:25:13;8.95;73.28
69324;DHT22;56470;47.350;8.718;2023-04-03T00:27:39;8.92;73.32
69324;DHT22;56470;47.350;8.718;2023-04-03T00:30:07;8.91;72.98
69324;DHT22;56470;47.350;8.718;2023-04-03T00:32:33;8.84;73.30
69324;DHT22;56470;47.350;8.718;2023-04-03T00:34:59;8.77;73.81
69324;DHT22;56470;47.350;8.718;2023-04-03T00:37:24;8.73;73.47
69324;DHT22;56470;47.350;8.718;2023-04-03T00:39:49;8.59;74.06
69324;DHT22;56470;47.350;8.718;2023-04-03T00:42:15;8.59;73.77
69324;DHT22;56470;47.350;8.718;2023-04-03T00:47:08;8.63;74.54
69324;DHT22;56470;47.350;8.718;2023-04-03T00:49:36;8.64;74.59
69324;DHT22;56470;47.350;8.718;2023-04-03T00:52:02;8.67;73.92
69324;DHT22;56470;47.350;8.718;2023-04-03T00:54:28;8.64;74.36
69324;DHT22;56470;47.350;8.718;2023-04-03T00:56:55;8.63;73.92
69324;DHT22;56470;47.350;8.718;2023-04-03T00:59:24;8.64;73.89
69324;DHT22;56470;47.350;8.718;2023-04-03T01:01:52;8.63;73.89
69324;DHT22;56470;47.350;8.718;2023-04-03T01:04:34;8.59;73.39
69324;DHT22;56470;47.350;8.718;2023-04-03T01:07:06;8.52;73.52
69324;DHT22;56470;47.350;8.718;2023-04-03T01:09:33;8.53;73.70
69324;DHT22;56470;47.350;8.718;2023-04-03T01:12:20;8.56;73.93
69324;DHT22;56470;47.350;8.718;2023-04-03T01:14:48;8.52;73.81
69324;DHT22;56470;47.350;8.718;2023-04-03T01:23:04;8.52;72.75
69324;DHT22;56470;47.350;8.718;2023-04-03T01:25:32;8.54;73.17
69324;DHT22;56470;47.350;8.718;2023-04-03T01:27:58;8.59;72.63
69324;DHT22;56470;47.350;8.718;2023-04-03T01:31:13;8.45;72.20
69324;DHT22;56470;47.350;8.718;2023-04-03T01:33:12;8.38;72.00
69324;DHT22;56470;47.350;8.718;2023-04-03T01:35:38;8.40;72.77
69324;DHT22;56470;47.350;8.718;2023-04-03T01:38:03;8.48;73.15
69324;DHT22;56470;47.350;8.718;2023-04-03T01:40:29;8.57;73.09
69324;DHT22;56470;47.350;8.718;2023-04-03T01:42:54;8.70;72.50
69324;DHT22;56470;47.350;8.718;2023-04-03T01:45:20;8.73;71.98
69324;DHT22;56470;47.350;8.718;2023-04-03T01:47:45;8.67;71.80
69324;DHT22;56470;47.350;8.718;2023-04-03T01:50:10;8.59;71.73
69324;DHT22;56470;47.350;8.718;2023-04-03T01:52:36;8.54;71.91
69324;DHT22;56470;47.350;8.718;2023-04-03T01:55:01;8.56;71.58
69324;DHT22;56470;47.350;8.718;2023-04-03T01:57:26;8.42;71.15
69324;DHT22;56470;47.350;8.718;2023-04-03T01:59:51;8.36;71.74
69324;DHT22;56470;47.350;8.718;2023-04-03T02:02:17;8.38;72.06
69324;DHT22;56470;47.350;8.718;2023-04-03T02:04:42;8.38;71.75
69324;DHT22;56470;47.350;8.718;2023-04-03T02:07:08;8.36;71.52
69324;DHT22;56470;47.350;8.718;2023-04-03T02:09:33;8.33;71.85
69324;DHT22;56470;47.350;8.718;2023-04-03T02:11:58;8.33;71.98
69324;DHT22;56470;47.350;8.718;2023-04-03T02:14:23;8.32;71.04
69324;DHT22;56470;47.350;8.718;2023-04-03T02:16:49;8.26;70.89
69324;DHT22;56470;47.350;8.718;2023-04-03T02:19:15;8.28;70.29
69324;DHT22;56470;47.350;8.718;2023-04-03T02:21:41;8.01;70.13
69324;DHT22;56470;47.350;8.718;2023-04-03T02:24:06;7.98;70.05
69324;DHT22;56470;47.350;8.718;2023-04-03T02:26:31;7.88;70.03
69324;DHT22;56470;47.350;8.718;2023-04-03T02:28:56;7.86;70.88
69324;DHT22;56470;47.350;8.718;2023-04-03T02:31:22;7.94;71.37
69324;DHT22;56470;47.350;8.718;2023-04-03T02:33:48;7.98;70.55
69324;DHT22;56470;47.350;8.718;2023-04-03T02:36:14;8.01;70.48
69324;DHT22;56470;47.350;8.718;2023-04-03T02:38:39;8.05;71.15
69324;DHT22;56470;47.350;8.718;2023-04-03T02:41:07;8.14;70.82
69324;DHT22;56470;47.350;8.718;2023-04-03T02:43:33;8.28;70.60
69324;DHT22;56470;47.350;8.718;2023-04-03T02:45:58;8.31;70.33
69324;DHT22;56470;47.350;8.718;2023-04-03T02:48:23;8.29;70.48
69324;DHT22;56470;47.350;8.718;2023-04-03T02:50:49;8.38;70.63
69324;DHT22;56470;47.350;8.718;2023-04-03T02:53:14;8.45;70.12
69324;DHT22;56470;47.350;8.718;2023-04-03T02:55:40;8.52;69.77
69324;DHT22;56470;47.350;8.718;2023-04-03T02:58:06;8.61;70.01
69324;DHT22;56470;47.350;8.718;2023-04-03T03:00:31;8.61;69.12
69324;DHT22;56470;47.350;8.718;2023-04-03T03:02:56;8.64;69.29
69324;DHT22;56470;47.350;8.718;2023-04-03T03:05:22;8.67;69.02
69324;DHT22;56470;47.350;8.718;2023-04-03T03:07:47;8.68;69.04
69324;DHT22;56470;47.350;8.718;2023-04-03T03:10:13;8.64;68.87
69324;DHT22;56470;47.350;8.718;2023-04-03T03:12:38;8.67;69.01
69324;DHT22;56470;47.350;8.718;2023-04-03T03:15:03;8.71;69.56
69324;DHT22;56470;47.350;8.718;2023-04-03T03:17:29;8.78;69.02
69324;DHT22;56470;47.350;8.718;2023-04-03T03:19:55;8.78;69.34
69324;DHT22;56470;47.350;8.718;2023-04-03T03:22:20;8.77;68.93
69324;DHT22;56470;47.350;8.718;2023-04-03T03:24:45;8.67;68.18
69324;DHT22;56470;47.350;8.718;2023-04-03T03:27:11;8.29;66.80
69324;DHT22;56470;47.350;8.718;2023-04-03T03:29:37;8.09;68.21
69324;DHT22;56470;47.350;8.718;2023-04-03T03:32:02;8.06;68.60
69324;DHT22;56470;47.350;8.718;2023-04-03T03:34:28;8.02;67.91
69324;DHT22;56470;47.350;8.718;2023-04-03T03:36:53;7.84;68.59
69324;DHT22;56470;47.350;8.718;2023-04-03T03:39:18;7.78;68.62
69324;DHT22;56470;47.350;8.718;2023-04-03T03:41:44;7.70;68.57
69324;DHT22;56470;47.350;8.718;2023-04-03T03:44:09;7.66;68.81
69324;DHT22;56470;47.350;8.718;2023-04-03T03:46:35;7.69;68.93
69324;DHT22;56470;47.350;8.718;2023-04-03T03:49:00;7.45;68.11
69324;DHT22;56470;47.350;8.718;2023-04-03T03:51:25;7.28;68.57
69324;DHT22;56470;47.350;8.718;2023-04-03T03:53:50;7.05;68.27
69324;DHT22;56470;47.350;8.718;2023-04-03T03:56:16;6.84;68.65
69324;DHT22;56470;47.350;8.718;2023-04-03T03:58:41;6.75;69.05
69324;DHT22;56470;47.350;8.718;2023-04-03T04:01:07;6.79;69.31
69324;DHT22;56470;47.350;8.718;2023-04-03T04:03:32;6.90;69.97
69324;DHT22;56470;47.350;8.718;2023-04-03T04:05:58;6.98;69.20
69324;DHT22;56470;47.350;8.718;2023-04-03T04:08:24;7.00;69.52
69324;DHT22;56470;47.350;8.718;2023-04-03T04:10:49;7.04;69.61
69324;DHT22;56470;47.350;8.718;2023-04-03T04:13:15;7.11;68.86
69324;DHT22;56470;47.350;8.718;2023-04-03T04:15:40;7.18;69.07
69324;DHT22;56470;47.350;8.718;2023-04-03T04:18:06;7.24;68.44
69324;DHT22;56470;47.350;8.718;2023-04-03T04:20:31;7.31;68.69
69324;DHT22;56470;47.350;8.718;2023-04-03T04:22:57;7.24;66.09
69324;DHT22;56470;47.350;8.718;2023-04-03T04:25:22;7.07;66.94
69324;DHT22;56470;47.350;8.718;2023-04-03T04:27:47;6.98;66.73
69324;DHT22;56470;47.350;8.718;2023-04-03T04:30:13;6.94;66.15
69324;DHT22;56470;47.350;8.718;2023-04-03T04:32:39;6.91;67.47
69324;DHT22;56470;47.350;8.718;2023-04-03T04:35:05;7.00;67.55
69324;DHT22;56470;47.350;8.718;2023-04-03T04:37:30;7.04;67.53
69324;DHT22;56470;47.350;8.718;2023-04-03T04:39:56;6.90;66.30
69324;DHT22;56470;47.350;8.718;2023-04-03T04:42:21;6.77;66.35
69324;DHT22;56470;47.350;8.718;2023-04-03T04:44:46;6.80;66.93
69324;DHT22;56470;47.350;8.718;2023-04-03T04:47:12;6.73;66.16
69324;DHT22;56470;47.350;8.718;2023-04-03T04:49:37;6.79;67.00
69324;DHT22;56470;47.350;8.718;2023-04-03T04:52:02;6.79;66.75
69324;DHT22;56470;47.350;8.718;2023-04-03T04:54:28;6.84;67.12
69324;DHT22;56470;47.350;8.718;2023-04-03T04:56:53;6.77;65.60
69324;DHT22;56470;47.350;8.718;2023-04-03T04:59:18;6.66;65.39
69324;DHT22;56470;47.350;8.718;2023-04-03T05:01:44;6.60;66.30
69324;DHT22;56470;47.350;8.718;2023-04-03T05:04:09;6.69;67.12
69324;DHT22;56470;47.350;8.718;2023-04-03T05:06:37;6.77;66.90
69324;DHT22;56470;47.350;8.718;2023-04-03T05:09:03;6.86;66.29
69324;DHT22;56470;47.350;8.718;2023-04-03T05:11:28;6.87;66.07
69324;DHT22;56470;47.350;8.718;2023-04-03T05:13:53;6.94;66.52
69324;DHT22;56470;47.350;8.718;2023-04-03T05:16:18;6.98;65.16
69324;DHT22;56470;47.350;8.718;2023-04-03T05:18:44;6.93;66.14
69324;DHT22;56470;47.350;8.718;2023-04-03T05:21:09;6.94;65.62
69324;DHT22;56470;47.350;8.718;2023-04-03T05:23:34;7.00;65.64
69324;DHT22;56470;47.350;8.718;2023-04-03T05:26:00;7.04;65.70
69324;DHT22;56470;47.350;8.718;2023-04-03T05:28:25;7.04;64.96
69324;DHT22;56470;47.350;8.718;2023-04-03T05:30:55;6.97;65.24
69324;DHT22;56470;47.350;8.718;2023-04-03T05:33:21;7.00;65.33
69324;DHT22;56470;47.350;8.718;2023-04-03T05:35:46;6.87;64.48
69324;DHT22;56470;47.350;8.718;2023-04-03T05:38:11;6.83;66.01
69324;DHT22;56470;47.350;8.718;2023-04-03T05:40:37;6.93;66.32
69324;DHT22;56470;47.350;8.718;2023-04-03T05:43:03;6.97;65.32
69324;DHT22;56470;47.350;8.718;2023-04-03T05:45:28;7.07;65.26
69324;DHT22;56470;47.350;8.718;2023-04-03T05:47:53;7.09;65.01
69324;DHT22;56470;47.350;8.718;2023-04-03T05:50:19;7.08;65.02
69324;DHT22;56470;47.350;8.718;2023-04-03T05:52:47;7.08;65.36
69324;DHT22;56470;47.350;8.718;2023-04-03T05:55:13;7.14;65.11
69324;DHT22;56470;47.350;8.718;2023-04-03T05:57:38;7.19;65.34
69324;DHT22;56470;47.350;8.718;2023-04-03T06:00:06;7.21;65.44
69324;DHT22;56470;47.350;8.718;2023-04-03T06:02:31;7.18;65.15
69324;DHT22;56470;47.350;8.718;2023-04-03T06:04:57;7.25;65.26
69324;DHT22;56470;47.350;8.718;2023-04-03T06:07:24;7.32;65.24
69324;DHT22;56470;47.350;8.718;2023-04-03T06:09:53;7.36;64.36
69324;DHT22;56470;47.350;8.718;2023-04-03T06:12:19;7.35;64.21
69324;DHT22;56470;47.350;8.718;2023-04-03T06:14:45;7.33;64.48
69324;DHT22;56470;47.350;8.718;2023-04-03T06:17:10;7.31;63.60
69324;DHT22;56470;47.350;8.718;2023-04-03T06:19:37;7.21;63.84
69324;DHT22;56470;47.350;8.718;2023-04-03T06:22:02;7.14;62.94
69324;DHT22;56470;47.350;8.718;2023-04-03T06:24:28;6.93;63.80
69324;DHT22;56470;47.350;8.718;2023-04-03T06:26:54;6.87;64.13
69324;DHT22;56470;47.350;8.718;2023-04-03T06:29:20;6.86;63.54
69324;DHT22;56470;47.350;8.718;2023-04-03T06:31:46;6.75;63.73
69324;DHT22;56470;47.350;8.718;2023-04-03T06:34:12;6.76;63.56
69324;DHT22;56470;47.350;8.718;2023-04-03T06:36:37;6.80;63.98
69324;DHT22;56470;47.350;8.718;2023-04-03T06:39:04;6.90;63.80
69324;DHT22;56470;47.350;8.718;2023-04-03T06:41:29;7.00;63.73
69324;DHT22;56470;47.350;8.718;2023-04-03T06:43:55;7.03;63.38
69324;DHT22;56470;47.350;8.718;2023-04-03T06:46:23;7.03;63.09
69324;DHT22;56470;47.350;8.718;2023-04-03T06:48:49;7.00;63.16
69324;DHT22;56470;47.350;8.718;2023-04-03T06:51:20;7.04;63.61
69324;DHT22;56470;47.350;8.718;2023-04-03T06:53:47;7.07;63.23
69324;DHT22;56470;47.350;8.718;2023-04-03T06:56:13;7.05;63.16
69324;DHT22;56470;47.350;8.718;2023-04-03T06:58:39;7.05;63.50
69324;DHT22;56470;47.350;8.718;2023-04-03T07:01:05;7.07;63.09
69324;DHT22;56470;47.350;8.718;2023-04-03T07:03:31;7.01;63.13
69324;DHT22;56470;47.350;8.718;2023-04-03T07:05:56;7.01;62.78
69324;DHT22;56470;47.350;8.718;2023-04-03T07:08:21;6.98;63.81
69324;DHT22;56470;47.350;8.718;2023-04-03T07:10:48;6.98;64.27
69324;DHT22;56470;47.350;8.718;2023-04-03T07:13:15;7.01;63.46
69324;DHT22;56470;47.350;8.718;2023-04-03T07:15:40;6.98;63.02
69324;DHT22;56470;47.350;8.718;2023-04-03T07:18:06;6.91;62.78
69324;DHT22;56470;47.350;8.718;2023-04-03T07:20:31;6.86;62.44
69324;DHT22;56470;47.350;8.718;2023-04-03T07:22:57;6.59;62.58
69324;DHT22;56470;47.350;8.718;2023-04-03T07:25:22;6.33;62.90
69324;DHT22;56470;47.350;8.718;2023-04-03T07:27:48;6.32;63.46
69324;DHT22;56470;47.350;8.718;2023-04-03T07:30:14;6.13;63.26
69324;DHT22;56470;47.350;8.718;2023-04-03T07:32:39;6.13;64.36
69324;DHT22;56470;47.350;8.718;2023-04-03T07:35:05;6.28;64.57
69324;DHT22;56470;47.350;8.718;2023-04-03T07:37:31;6.43;64.33
69324;DHT22;56470;47.350;8.718;2023-04-03T07:39:57;6.54;64.32
69324;DHT22;56470;47.350;8.718;2023-04-03T07:42:24;6.66;62.88
69324;DHT22;56470;47.350;8.718;2023-04-03T07:44:52;6.70;63.23
69324;DHT22;56470;47.350;8.718;2023-04-03T07:47:18;6.73;62.92
69324;DHT22;56470;47.350;8.718;2023-04-03T07:49:43;6.62;62.70
69324;DHT22;56470;47.350;8.718;2023-04-03T07:52:08;6.48;62.94
69324;DHT22;56470;47.350;8.718;2023-04-03T07:54:34;6.45;62.80
69324;DHT22;56470;47.350;8.718;2023-04-03T07:57:00;6.45;62.77
69324;DHT22;56470;47.350;8.718;2023-04-03T07:59:25;6.42;63.22
69324;DHT22;56470;47.350;8.718;2023-04-03T08:01:50;6.42;63.57
69324;DHT22;56470;47.350;8.718;2023-04-03T08:04:16;6.41;62.77
69324;DHT22;56470;47.350;8.718;2023-04-03T08:06:41;6.39;62.25
69324;DHT22;56470;47.350;8.718;2023-04-03T08:09:10;6.35;62.98
69324;DHT22;56470;47.350;8.718;2023-04-03T08:11:35;6.41;63.42
69324;DHT22;56470;47.350;8.718;2023-04-03T08:14:01;6.38;62.91
69324;DHT22;56470;47.350;8.718;2023-04-03T08:16:27;6.31;62.25
69324;DHT22;56470;47.350;8.718;2023-04-03T08:18:53;6.26;62.21
69324;DHT22;56470;47.350;8.718;2023-04-03T08:21:19;6.24;62.53
69324;DHT22;56470;47.350;8.718;2023-04-03T08:23:48;6.33;63.20
69324;DHT22;56470;47.350;8.718;2023-04-03T08:26:17;6.48;62.84
69324;DHT22;56470;47.350;8.718;2023-04-03T08:28:42;6.50;62.44
69324;DHT22;56470;47.350;8.718;2023-04-03T08:31:11;6.54;61.38
69324;DHT22;56470;47.350;8.718;2023-04-03T08:33:39;6.50;61.80
69324;DHT22;56470;47.350;8.718;2023-04-03T08:36:06;6.57;61.73
69324;DHT22;56470;47.350;8.718;2023-04-03T08:38:33;6.72;62.45
69324;DHT22;56470;47.350;8.718;2023-04-03T08:41:34;6.73;61.12
69324;DHT22;56470;47.350;8.718;2023-04-03T08:46:41;6.90;61.75
69324;DHT22;56470;47.350;8.718;2023-04-03T08:49:19;6.96;62.02
69324;DHT22;56470;47.350;8.718;2023-04-03T08:51:49;6.96;60.79
69324;DHT22;56470;47.350;8.718;2023-04-03T08:54:29;7.00;60.70
69324;DHT22;56470;47.350;8.718;2023-04-03T08:56:56;7.07;60.78
69324;DHT22;56470;47.350;8.718;2023-04-03T08:59:29;7.08;60.06
69324;DHT22;56470;47.350;8.718;2023-04-03T09:01:57;7.01;59.73
69324;DHT22;56470;47.350;8.718;2023-04-03T09:04:26;6.77;60.11
69324;DHT22;56470;47.350;8.718;2023-04-03T09:06:58;6.59;60.91
69324;DHT22;56470;47.350;8.718;2023-04-03T09:09:41;6.32;60.76
69324;DHT22;56470;47.350;8.718;2023-04-03T09:14:49;6.17;61.91
69324;DHT22;56470;47.350;8.718;2023-04-03T09:17:39;6.20;62.35
69324;DHT22;56470;47.350;8.718;2023-04-03T09:20:30;6.08;62.07
69324;DHT22;56470;47.350;8.718;2023-04-03T09:22:58;5.98;62.33
69324;DHT22;56470;47.350;8.718;2023-04-03T09:25:35;5.90;62.59
69324;DHT22;56470;47.350;8.718;2023-04-03T09:28:03;5.97;62.98
69324;DHT22;56470;47.350;8.718;2023-04-03T09:30:29;6.10;62.45
69324;DHT22;56470;47.350;8.718;2023-04-03T09:32:56;6.24;61.90
69324;DHT22;56470;47.350;8.718;2023-04-03T09:35:32;6.28;62.26
69324;DHT22;56470;47.350;8.718;2023-04-03T09:40:40;6.46;62.40
69324;DHT22;56470;47.350;8.718;2023-04-03T09:43:22;6.41;62.55
69324;DHT22;56470;47.350;8.718;2023-04-03T09:45:49;6.46;62.50
69324;DHT22;56470;47.350;8.718;2023-04-03T09:53:41;6.08;63.36
69324;DHT22;56470;47.350;8.718;2023-04-03T09:58:44;6.08;62.82
69324;DHT22;56470;47.350;8.718;2023-04-03T10:01:32;6.04;63.66
69324;DHT22;56470;47.350;8.718;2023-04-03T10:06:47;6.29;64.29
69324;DHT22;56470;47.350;8.718;2023-04-03T10:09:23;6.50;64.20
69324;DHT22;56470;47.350;8.718;2023-04-03T10:14:37;6.56;62.93
69324;DHT22;56470;47.350;8.718;2023-04-03T10:17:09;6.62;64.03
69324;DHT22;56470;47.350;8.718;2023-04-03T10:19:45;6.79;63.58
69324;DHT22;56470;47.350;8.718;2023-04-03T10:22:23;6.94;63.13
69324;DHT22;56470;47.350;8.718;2023-04-03T10:27:52;6.88;62.75
69324;DHT22;56470;47.350;8.718;2023-04-03T10:30:33;6.80;62.55
69324;DHT22;56470;47.350;8.718;2023-04-03T10:33:11;6.84;63.28
69324;DHT22;56470;47.350;8.718;2023-04-03T10:38:43;7.01;62.93
69324;DHT22;56470;47.350;8.718;2023-04-03T10:43:55;6.91;62.47
69324;DHT22;56470;47.350;8.718;2023-04-03T10:46:50;6.81;62.92
69324;DHT22;56470;47.350;8.718;2023-04-03T10:49:51;6.67;62.33
69324;DHT22;56470;47.350;8.718;2023-04-03T10:57:22;6.80;63.26
69324;DHT22;56470;47.350;8.718;2023-04-03T10:59:57;6.81;63.28
69324;DHT22;56470;47.350;8.718;2023-04-03T11:02:33;6.83;62.71
69324;DHT22;56470;47.350;8.718;2023-04-03T11:05:17;6.83;63.93
69324;DHT22;56470;47.350;8.718;2023-04-03T11:07:48;6.93;62.76
69324;DHT22;56470;47.350;8.718;2023-04-03T11:10:21;6.96;62.82
69324;DHT22;56470;47.350;8.718;2023-04-03T11:12:52;7.04;63.00
69324;DHT22;56470;47.350;8.718;2023-04-03T11:15:22;7.14;62.47
69324;DHT22;56470;47.350;8.718;2023-04-03T11:17:54;7.14;62.61
69324;DHT22;56470;47.350;8.718;2023-04-03T11:20:29;7.12;62.26
69324;DHT22;56470;47.350;8.718;2023-04-03T11:23:02;6.88;61.62
69324;DHT22;56470;47.350;8.718;2023-04-03T11:25:30;6.80;62.46
69324;DHT22;56470;47.350;8.718;2023-04-03T11:27:59;6.79;63.09
69324;DHT22;56470;47.350;8.718;2023-04-03T11:30:51;6.93;63.16
69324;DHT22;56470;47.350;8.718;2023-04-03T11:36:11;7.25;62.85
69324;DHT22;56470;47.350;8.718;2023-04-03T11:38:41;7.41;62.44
69324;DHT22;56470;47.350;8.718;2023-04-03T11:41:08;7.43;61.81
69324;DHT22;56470;47.350;8.718;2023-04-03T11:43:40;7.36;62.24
69324;DHT22;56470;47.350;8.718;2023-04-03T11:46:07;7.36;62.53
69324;DHT22;56470;47.350;8.718;2023-04-03T11:51:37;7.29;62.09
69324;DHT22;56470;47.350;8.718;2023-04-03T11:53:48;7.26;62.16
69324;DHT22;56470;47.350;8.718;2023-04-03T12:01:46;7.16;62.08
69324;DHT22;56470;47.350;8.718;2023-04-03T12:04:13;7.15;62.54
69324;DHT22;56470;47.350;8.718;2023-04-03T12:09:26;7.32;62.78
69324;DHT22;56470;47.350;8.718;2023-04-03T12:11:53;7.39;62.18
69324;DHT22;56470;47.350;8.718;2023-04-03T12:14:22;7.39;62.11
69324;DHT22;56470;47.350;8.718;2023-04-03T12:16:48;7.38;62.21
69324;DHT22;56470;47.350;8.718;2023-04-03T12:29:14;7.39;62.55
69324;DHT22;56470;47.350;8.718;2023-04-03T12:31:55;7.45;62.50
69324;DHT22;56470;47.350;8.718;2023-04-03T12:34:42;7.52;62.50
69324;DHT22;56470;47.350;8.718;2023-04-03T12:37:54;7.41;61.32
69324;DHT22;56470;47.350;8.718;2023-04-03T12:40:30;7.41;62.11
69324;DHT22;56470;47.350;8.718;2023-04-03T12:48:51;7.26;61.68
69324;DHT22;56470;47.350;8.718;2023-04-03T12:51:21;7.22;62.07
69324;DHT22;56470;47.350;8.718;2023-04-03T12:53:49;7.16;61.97
69324;DHT22;56470;47.350;8.718;2023-04-03T12:56:27;7.08;61.95
69324;DHT22;56470;47.350;8.718;2023-04-03T12:58:55;7.12;61.83
69324;DHT22;56470;47.350;8.718;2023-04-03T13:01:24;6.98;61.85
69324;DHT22;56470;47.350;8.718;2023-04-03T13:03:57;6.98;61.81
69324;DHT22;56470;47.350;8.718;2023-04-03T13:06:28;7.04;62.30
69324;DHT22;56470;47.350;8.718;2023-04-03T13:08:58;7.00;61.75
69324;DHT22;56470;47.350;8.718;2023-04-03T13:11:26;6.93;61.60
69324;DHT22;56470;47.350;8.718;2023-04-03T13:13:57;6.91;62.04
69324;DHT22;56470;47.350;8.718;2023-04-03T13:16:23;6.91;62.13
69324;DHT22;56470;47.350;8.718;2023-04-03T13:18:55;6.84;61.74
69324;DHT22;56470;47.350;8.718;2023-04-03T13:21:25;6.94;62.32
69324;DHT22;56470;47.350;8.718;2023-04-03T13:23:54;6.97;61.75
69324;DHT22;56470;47.350;8.718;2023-04-03T13:26:22;7.05;62.09
69324;DHT22;56470;47.350;8.718;2023-04-03T13:28:47;7.07;61.77
69324;DHT22;56470;47.350;8.718;2023-04-03T13:33:50;7.08;62.16
69324;DHT22;56470;47.350;8.718;2023-04-03T13:36:19;7.18;61.76
69324;DHT22;56470;47.350;8.718;2023-04-03T13:38:45;7.21;61.55
69324;DHT22;56470;47.350;8.718;2023-04-03T13:41:31;7.18;61.69
69324;DHT22;56470;47.350;8.718;2023-04-03T13:44:15;7.28;62.00
69324;DHT22;56470;47.350;8.718;2023-04-03T13:46:41;7.39;62.36
69324;DHT22;56470;47.350;8.718;2023-04-03T13:49:29;7.43;61.46
69324;DHT22;56470;47.350;8.718;2023-04-03T13:51:55;7.43;61.90
69324;DHT22;56470;47.350;8.718;2023-04-03T13:54:38;7.48;61.61
69324;DHT22;56470;47.350;8.718;2023-04-03T13:57:13;7.58;61.41
69324;DHT22;56470;47.350;8.718;2023-04-03T13:59:39;7.62;61.86
69324;DHT22;56470;47.350;8.718;2023-04-03T14:04:46;7.33;60.89
69324;DHT22;56470;47.350;8.718;2023-04-03T14:07:14;7.33;61.33
69324;DHT22;56470;47.350;8.718;2023-04-03T14:09:40;7.31;60.86
69324;DHT22;56470;47.350;8.718;2023-04-03T14:12:08;7.19;61.14
69324;DHT22;56470;47.350;8.718;2023-04-03T14:14:35;7.21;61.25
69324;DHT22;56470;47.350;8.718;2023-04-03T14:17:03;7.21;61.40
69324;DHT22;56470;47.350;8.718;2023-04-03T14:19:35;7.18;61.56
69324;DHT22;56470;47.350;8.718;2023-04-03T14:22:19;7.18;61.46
69324;DHT22;56470;47.350;8.718;2023-04-03T14:24:48;7.18;61.75
69324;DHT22;56470;47.350;8.718;2023-04-03T14:29:46;7.26;61.58
69324;DHT22;56470;47.350;8.718;2023-04-03T14:32:13;7.22;61.54
69324;DHT22;56470;47.350;8.718;2023-04-03T14:34:41;7.18;61.41
69324;DHT22;56470;47.350;8.718;2023-04-03T14:37:16;7.16;61.41
69324;DHT22;56470;47.350;8.718;2023-04-03T14:39:43;7.18;61.29
69324;DHT22;56470;47.350;8.718;2023-04-03T14:42:13;7.25;61.25
69324;DHT22;56470;47.350;8.718;2023-04-03T14:44:38;7.21;61.27
69324;DHT22;56470;47.350;8.718;2023-04-03T14:47:04;7.21;61.08
69324;DHT22;56470;47.350;8.718;2023-04-03T14:49:29;7.15;60.75
69324;DHT22;56470;47.350;8.718;2023-04-03T14:51:57;7.24;60.71
69324;DHT22;56470;47.350;8.718;2023-04-03T14:54:23;7.24;60.01
69324;DHT22;56470;47.350;8.718;2023-04-03T14:56:53;7.21;60.22
69324;DHT22;56470;47.350;8.718;2023-04-03T14:59:19;7.26;60.29
69324;DHT22;56470;47.350;8.718;2023-04-03T15:01:46;7.31;60.44
69324;DHT22;56470;47.350;8.718;2023-04-03T15:04:17;7.26;59.21
69324;DHT22;56470;47.350;8.718;2023-04-03T15:06:42;7.22;59.66
69324;DHT22;56470;47.350;8.718;2023-04-03T15:09:19;7.24;58.85
69324;DHT22;56470;47.350;8.718;2023-04-03T15:11:45;7.22;59.19
69324;DHT22;56470;47.350;8.718;2023-04-03T15:14:11;7.21;58.64
69324;DHT22;56470;47.350;8.718;2023-04-03T15:16:36;7.22;58.64
69324;DHT22;56470;47.350;8.718;2023-04-03T15:19:01;7.18;58.41
69324;DHT22;56470;47.350;8.718;2023-04-03T15:21:27;7.11;57.78
69324;DHT22;56470;47.350;8.718;2023-04-03T15:23:52;7.05;58.26
69324;DHT22;56470;47.350;8.718;2023-04-03T15:26:18;7.00;58.02
69324;DHT22;56470;47.350;8.718;2023-04-03T15:28:44;6.94;57.39
69324;DHT22;56470;47.350;8.718;2023-04-03T15:31:10;6.94;58.57
69324;DHT22;56470;47.350;8.718;2023-04-03T15:33:35;7.00;58.01
69324;DHT22;56470;47.350;8.718;2023-04-03T15:36:02;7.11;58.71
69324;DHT22;56470;47.350;8.718;2023-04-03T15:38:27;7.12;58.39
69324;DHT22;56470;47.350;8.718;2023-04-03T15:40:54;7.21;58.41
69324;DHT22;56470;47.350;8.718;2023-04-03T15:43:19;7.25;57.84
69324;DHT22;56470;47.350;8.718;2023-04-03T15:45:45;7.11;56.85
69324;DHT22;56470;47.350;8.718;2023-04-03T15:48:11;7.08;57.67
69324;DHT22;56470;47.350;8.718;2023-04-03T15:50:36;7.08;57.70
69324;DHT22;56470;47.350;8.718;2023-04-03T15:53:02;7.01;57.89
69324;DHT22;56470;47.350;8.718;2023-04-03T15:55:30;7.01;58.19
69324;DHT22;56470;47.350;8.718;2023-04-03T15:57:55;7.03;58.42
69324;DHT22;56470;47.350;8.718;2023-04-03T16:00:22;7.08;58.28
69324;DHT22;56470;47.350;8.718;2023-04-03T16:02:50;7.07;58.06
69324;DHT22;56470;47.350;8.718;2023-04-03T16:05:18;7.04;58.29
69324;DHT22;56470;47.350;8.718;2023-04-03T16:07:44;7.01;58.01
69324;DHT22;56470;47.350;8.718;2023-04-03T16:10:12;7.04;57.93
69324;DHT22;56470;47.350;8.718;2023-04-03T16:12:38;6.97;57.84
69324;DHT22;56470;47.350;8.718;2023-04-03T16:15:04;6.96;58.06
69324;DHT22;56470;47.350;8.718;2023-04-03T16:20:08;6.90;58.24
69324;DHT22;56470;47.350;8.718;2023-04-03T16:22:34;6.91;58.23
69324;DHT22;56470;47.350;8.718;2023-04-03T16:25:04;6.96;58.52
69324;DHT22;56470;47.350;8.718;2023-04-03T16:27:29;6.84;58.02
69324;DHT22;56470;47.350;8.718;2023-04-03T16:29:58;6.88;58.55
69324;DHT22;56470;47.350;8.718;2023-04-03T16:32:26;6.88;57.88
69324;DHT22;56470;47.350;8.718;2023-04-03T16:34:53;6.87;57.08
69324;DHT22;56470;47.350;8.718;2023-04-03T16:37:18;6.77;56.73
69324;DHT22;56470;47.350;8.718;2023-04-03T16:39:44;6.62;56.77
69324;DHT22;56470;47.350;8.718;2023-04-03T16:42:09;6.65;57.91
69324;DHT22;56470;47.350;8.718;2023-04-03T16:44:36;6.73;57.62
69324;DHT22;56470;47.350;8.718;2023-04-03T16:47:01;6.75;56.15
69324;DHT22;56470;47.350;8.718;2023-04-03T16:49:27;6.70;56.12
69324;DHT22;56470;47.350;8.718;2023-04-03T16:51:58;6.66;56.47
69324;DHT22;56470;47.350;8.718;2023-04-03T16:54:23;6.66;56.61
69324;DHT22;56470;47.350;8.718;2023-04-03T16:56:48;6.73;57.23
69324;DHT22;56470;47.350;8.718;2023-04-03T16:59:14;6.72;56.83
69324;DHT22;56470;47.350;8.718;2023-04-03T17:01:39;6.77;57.43
69324;DHT22;56470;47.350;8.718;2023-04-03T17:04:05;6.87;57.59
69324;DHT22;56470;47.350;8.718;2023-04-03T17:06:30;6.90;57.08
69324;DHT22;56470;47.350;8.718;2023-04-03T17:08:55;6.81;56.15
69324;DHT22;56470;47.350;8.718;2023-04-03T17:11:21;6.87;57.73
69324;DHT22;56470;47.350;8.718;2023-04-03T17:13:47;6.94;57.67